Terminal Aerodrome Forecast
Issued by NWS Upton, NY

Home | Current Version | Previous Version | Text Only | Print | Product List | Glossary On
Versions: 1 2 3 4 5 6 7 8 9 10 11 12 13 14 15 16 17 18 19 20 21 22 23 24 25 26 27 28 29 30 31 32
000
FTUS41 KOKX 270250 AAA
TAFISP
TAF AMD
KISP 270250Z 2703/2724 19005KT P6SM FEW008 FEW120 SCT250
     FM270900 19005KT 5SM BR SCT008 SCT120
     FM271200 19007KT 6SM HZ FEW008 SCT120
     FM271400 20008KT 6SM HZ FEW008 SCT120
     FM271900 20012KT P6SM SCT100 SCT250=

USA.gov is the U.S. government's official web portal to all federal, state and local government web resources and services.